This is the latest recevied weather packets stored in our database for station/object W0AKY-13. If no packets are shown the sender has not sent any weather packets the latest 10 day(s).
| Time | Temp. | Humidity | Pressure | Rain* | Wind** | Luminosity | Snow |
|---|---|---|---|---|---|---|---|
| 1777568003 | 14.44° C | 67% | 1019.6 hPa | 0 mm | - | 130 W/m² | - |
| 1777567700 | 14.44° C | 65% | 1019.6 hPa | 0 mm | - | 379 W/m² | - |
| 1777567397 | 14.44° C | 68% | 1019.9 hPa | 0 mm | - | 525 W/m² | - |
| 1777567095 | 13.89° C | 68% | 1019.8 hPa | 0 mm | - | 228 W/m² | - |
| 1777566792 | 14.44° C | 68% | 1019.8 hPa | 0 mm | - | 168 W/m² | - |
| 1777566490 | 13.89° C | 70% | 1019.7 hPa | 0 mm | - | 224 W/m² | - |
| 1777566187 | 13.89° C | 69% | 1019.7 hPa | 0 mm | - | 312 W/m² | - |
| 1777565883 | 13.89° C | 70% | 1019.5 hPa | 0 mm | - | 212 W/m² | - |
| 1777565573 | 13.89° C | 70% | 1019.5 hPa | 0 mm | - | 196 W/m² | - |
| 1777565270 | 13.89° C | 71% | 1019.6 hPa | 0 mm | - | 251 W/m² | - |
| 1777564966 | 13.89° C | 70% | 1019.4 hPa | 0 mm | - | 240 W/m² | - |
| 1777564662 | 13.89° C | 71% | 1019.6 hPa | 0 mm | - | 201 W/m² | - |
| 1777564356 | 13.89° C | 69% | 1019.6 hPa | 0 mm | - | 321 W/m² | - |
| 1777564053 | 13.89° C | 72% | 1019.5 hPa | 0 mm | - | 300 W/m² | - |
| 1777563750 | 13.89° C | 70% | 1019.4 hPa | 0 mm | - | 389 W/m² | - |
| 1777563446 | 13.33° C | 71% | 1019.4 hPa | 0 mm | - | 389 W/m² | - |
| 1777563145 | 13.89° C | 73% | 1019.3 hPa | 0 mm | - | 313 W/m² | - |
| 1777562842 | 13.33° C | 72% | 1019.3 hPa | 0 mm | - | 365 W/m² | - |
| 1777562539 | 13.33° C | 70% | 1019.3 hPa | 0 mm | - | 353 W/m² | - |
| 1777562237 | 13.89° C | 69% | 1019.1 hPa | 0 mm | - | 201 W/m² | - |
| 1777561935 | 13.33° C | 71% | 1019.3 hPa | 0 mm | - | 391 W/m² | - |
| 1777561631 | 13.33° C | 71% | 1019.2 hPa | 0 mm | - | 239 W/m² | - |
| 1777561328 | 13.33° C | 70% | 1019.3 hPa | 0 mm | - | 264 W/m² | - |
| 1777561028 | 13.33° C | 69% | 1019.3 hPa | 0 mm | - | 209 W/m² | - |
| 1777560722 | 13.33° C | 70% | 1019.3 hPa | 0 mm | - | 198 W/m² | - |
* Rain latest hour (hover to see other rain measurements)
** Current wind speed in m/s (hover to see current wind gust speed)